EVA0457 RCTP-VHHX
Flight info
| Callsign | EVA0457 |
|---|---|
| Flight time | 1h 36m |
| Altitude | 38000 |
| Route | CHALI1C CHALI T3 MKG A1 ELATO |
| Aircraft | B77W/H-SDE1E2E3FGHIJ2J3J4J5M1RWXY/LB1D1 |
Departure
| Time | 2026-05-05 15:00 |
|---|---|
| Airport | Taiwan Taoyuan International Airport (RCTP) |
Arrival
| Time | 2026-05-05 16:36 |
|---|---|
| Airport | Hong Kong International Airport Kai Tak (VHHX) |
| Time | Latitude | Longitude | Altitude | Speed | Heading |
|---|---|---|---|---|---|
| 2026-05-05 14:29 | 25.08011 | 121.23142 | 85 ft | 0 kts | 141° |
| 2026-05-05 14:48 | 25.08019 | 121.23135 | 90 ft | 2 kts | 145° |
| 2026-05-05 14:48 | 25.08033 | 121.23125 | 87 ft | 2 kts | 150° |
| 2026-05-05 14:49 | 25.08048 | 121.23117 | 89 ft | 2 kts | 159° |
| 2026-05-05 14:49 | 25.08063 | 121.23112 | 87 ft | 2 kts | 172° |
| 2026-05-05 14:49 | 25.08080 | 121.23111 | 90 ft | 2 kts | 194° |
| 2026-05-05 14:49 | 25.08095 | 121.23118 | 90 ft | 2 kts | 217° |
| 2026-05-05 14:50 | 25.08105 | 121.23128 | 90 ft | 1 kts | 229° |
| 2026-05-05 14:50 | 25.08106 | 121.23129 | 90 ft | 0 kts | 229° |
| 2026-05-05 14:52 | 25.08105 | 121.23129 | 85 ft | 1 kts | 229° |
| 2026-05-05 14:53 | 25.08088 | 121.23107 | 89 ft | 5 kts | 229° |
| 2026-05-05 14:53 | 25.08063 | 121.23075 | 90 ft | 6 kts | 229° |
| 2026-05-05 14:53 | 25.08035 | 121.23037 | 88 ft | 7 kts | 229° |
| 2026-05-05 14:53 | 25.08019 | 121.23018 | 88 ft | 0 kts | 229° |
| 2026-05-05 14:54 | 25.08016 | 121.23012 | 88 ft | 1 kts | 236° |
| 2026-05-05 14:54 | 25.08011 | 121.22962 | 89 ft | 10 kts | 293° |
| 2026-05-05 14:54 | 25.08030 | 121.22888 | 88 ft | 11 kts | 257° |
| 2026-05-05 14:54 | 25.07991 | 121.22818 | 89 ft | 11 kts | 230° |
| 2026-05-05 14:55 | 25.07941 | 121.22753 | 89 ft | 11 kts | 230° |
| 2026-05-05 14:55 | 25.07891 | 121.22688 | 88 ft | 13 kts | 230° |
| 2026-05-05 14:55 | 25.07818 | 121.22593 | 90 ft | 20 kts | 229° |
| 2026-05-05 14:55 | 25.07724 | 121.22476 | 89 ft | 21 kts | 229° |
| 2026-05-05 14:56 | 25.07630 | 121.22356 | 89 ft | 21 kts | 229° |
| 2026-05-05 14:56 | 25.07536 | 121.22237 | 89 ft | 21 kts | 229° |
| 2026-05-05 14:56 | 25.07442 | 121.22120 | 89 ft | 21 kts | 229° |
| 2026-05-05 14:56 | 25.07348 | 121.22001 | 90 ft | 21 kts | 229° |
| 2026-05-05 14:57 | 25.07253 | 121.21881 | 90 ft | 21 kts | 229° |
| 2026-05-05 14:57 | 25.07187 | 121.21792 | 90 ft | 10 kts | 238° |
| 2026-05-05 14:57 | 25.07197 | 121.21723 | 89 ft | 10 kts | 307° |
| 2026-05-05 14:57 | 25.07245 | 121.21670 | 89 ft | 10 kts | 321° |
| 2026-05-05 14:58 | 25.07306 | 121.21652 | 90 ft | 10 kts | 15° |
| 2026-05-05 14:58 | 25.07365 | 121.21701 | 90 ft | 11 kts | 46° |
| 2026-05-05 14:58 | 25.07407 | 121.21755 | 91 ft | 0 kts | 49° |
| 2026-05-05 14:59 | 25.07418 | 121.21768 | 90 ft | 16 kts | 49° |
| 2026-05-05 14:59 | 25.07704 | 121.22130 | 91 ft | 106 kts | 49° |
| 2026-05-05 14:59 | 25.08347 | 121.22958 | 98 ft | 176 kts | 49° |
| 2026-05-05 15:00 | 25.09175 | 121.24028 | 812 ft | 178 kts | 50° |
| 2026-05-05 15:00 | 25.09721 | 121.24712 | 1399 ft | 183 kts | 50° |
| 2026-05-05 15:00 | 25.10889 | 121.26160 | 2327 ft | 197 kts | 50° |
| 2026-05-05 15:00 | 25.11840 | 121.27381 | 2717 ft | 223 kts | 50° |
| 2026-05-05 15:01 | 25.12916 | 121.28754 | 3000 ft | 252 kts | 47° |
| 2026-05-05 15:01 | 25.14398 | 121.29865 | 3523 ft | 267 kts | 15° |
| 2026-05-05 15:01 | 25.16262 | 121.29916 | 4364 ft | 272 kts | 342° |
| 2026-05-05 15:01 | 25.17871 | 121.28904 | 5279 ft | 269 kts | 312° |
| 2026-05-05 15:02 | 25.19067 | 121.27325 | 6191 ft | 268 kts | 305° |
| 2026-05-05 15:02 | 25.20199 | 121.25694 | 7154 ft | 269 kts | 304° |
| 2026-05-05 15:02 | 25.21334 | 121.24042 | 8126 ft | 270 kts | 304° |
| 2026-05-05 15:02 | 25.22486 | 121.22373 | 9096 ft | 272 kts | 304° |
| 2026-05-05 15:03 | 25.23636 | 121.20720 | 10008 ft | 275 kts | 303° |
| 2026-05-05 15:03 | 25.24830 | 121.19011 | 10682 ft | 288 kts | 303° |
| 2026-05-05 15:03 | 25.26106 | 121.17181 | 10929 ft | 316 kts | 303° |
| 2026-05-05 15:03 | 25.27208 | 121.15037 | 11079 ft | 335 kts | 284° |
| 2026-05-05 15:04 | 25.27448 | 121.12413 | 11623 ft | 347 kts | 262° |
| 2026-05-05 15:04 | 25.26752 | 121.09861 | 12531 ft | 353 kts | 242° |
| 2026-05-05 15:04 | 25.25268 | 121.07690 | 13516 ft | 356 kts | 230° |
| 2026-05-05 15:04 | 25.23599 | 121.05668 | 14395 ft | 362 kts | 230° |
| 2026-05-05 15:05 | 25.20212 | 121.01474 | 16319 ft | 368 kts | 229° |
| 2026-05-05 15:05 | 25.18409 | 120.99469 | 17223 ft | 373 kts | 225° |
| 2026-05-05 15:05 | 25.16499 | 120.97488 | 18101 ft | 378 kts | 225° |
| 2026-05-05 15:06 | 25.14572 | 120.95475 | 18879 ft | 383 kts | 225° |
| 2026-05-05 15:06 | 25.12652 | 120.93441 | 19604 ft | 387 kts | 226° |
| 2026-05-05 15:06 | 25.10697 | 120.91341 | 20350 ft | 392 kts | 226° |
| 2026-05-05 15:06 | 25.08752 | 120.89240 | 21083 ft | 396 kts | 226° |
| 2026-05-05 15:07 | 25.06763 | 120.87090 | 21807 ft | 401 kts | 226° |
| 2026-05-05 15:07 | 25.04774 | 120.84940 | 22512 ft | 405 kts | 227° |
| 2026-05-05 15:07 | 25.02739 | 120.82742 | 23208 ft | 409 kts | 227° |
| 2026-05-05 15:07 | 25.00690 | 120.80533 | 23822 ft | 414 kts | 227° |
| 2026-05-05 15:08 | 24.98636 | 120.78320 | 24367 ft | 417 kts | 227° |
| 2026-05-05 15:08 | 24.96543 | 120.76067 | 24931 ft | 421 kts | 227° |
| 2026-05-05 15:08 | 24.94450 | 120.73815 | 25483 ft | 424 kts | 227° |
| 2026-05-05 15:08 | 24.92319 | 120.71524 | 26051 ft | 427 kts | 227° |
| 2026-05-05 15:09 | 24.90187 | 120.69233 | 26592 ft | 431 kts | 227° |
| 2026-05-05 15:09 | 24.88021 | 120.66905 | 27111 ft | 435 kts | 227° |
| 2026-05-05 15:09 | 24.85857 | 120.64582 | 27637 ft | 438 kts | 227° |
| 2026-05-05 15:09 | 24.83660 | 120.62224 | 28160 ft | 441 kts | 227° |
| 2026-05-05 15:10 | 24.81468 | 120.59873 | 28621 ft | 445 kts | 227° |
| 2026-05-05 15:10 | 24.79236 | 120.57479 | 29083 ft | 448 kts | 227° |
| 2026-05-05 15:10 | 24.76978 | 120.55059 | 29523 ft | 452 kts | 227° |
| 2026-05-05 15:10 | 24.74725 | 120.52647 | 29925 ft | 455 kts | 227° |
| 2026-05-05 15:11 | 24.72440 | 120.50271 | 30350 ft | 457 kts | 224° |
| 2026-05-05 15:11 | 24.70758 | 120.48832 | 30671 ft | 459 kts | 220° |
| 2026-05-05 15:11 | 24.68111 | 120.46840 | 31235 ft | 457 kts | 218° |
| 2026-05-05 15:11 | 24.64602 | 120.44314 | 31973 ft | 454 kts | 218° |
| 2026-05-05 15:12 | 24.62818 | 120.43022 | 32329 ft | 453 kts | 218° |
| 2026-05-05 15:12 | 24.60220 | 120.41111 | 32819 ft | 451 kts | 219° |
| 2026-05-05 15:12 | 24.57620 | 120.39167 | 33327 ft | 449 kts | 219° |
| 2026-05-05 15:12 | 24.55066 | 120.37238 | 33825 ft | 447 kts | 219° |
| 2026-05-05 15:13 | 24.51659 | 120.34656 | 34398 ft | 445 kts | 219° |
| 2026-05-05 15:13 | 24.49962 | 120.33372 | 34676 ft | 444 kts | 219° |
| 2026-05-05 15:13 | 24.47408 | 120.31442 | 35074 ft | 443 kts | 219° |
| 2026-05-05 15:13 | 24.44889 | 120.29539 | 35455 ft | 442 kts | 220° |
| 2026-05-05 15:14 | 24.42380 | 120.27614 | 35833 ft | 440 kts | 220° |
| 2026-05-05 15:14 | 24.39869 | 120.25667 | 36218 ft | 439 kts | 220° |
| 2026-05-05 15:14 | 24.37398 | 120.23743 | 36578 ft | 437 kts | 220° |
| 2026-05-05 15:14 | 24.34906 | 120.21806 | 36943 ft | 436 kts | 220° |
| 2026-05-05 15:15 | 24.32439 | 120.19892 | 37286 ft | 435 kts | 221° |
| 2026-05-05 15:15 | 24.29959 | 120.17971 | 37638 ft | 434 kts | 221° |
| 2026-05-05 15:15 | 24.27520 | 120.16084 | 37933 ft | 434 kts | 221° |
| 2026-05-05 15:16 | 24.22524 | 120.12221 | 38019 ft | 439 kts | 221° |
| 2026-05-05 15:16 | 24.17554 | 120.08388 | 38011 ft | 433 kts | 221° |
| 2026-05-05 15:17 | 24.12662 | 120.04611 | 38016 ft | 431 kts | 221° |
| 2026-05-05 15:17 | 24.07770 | 120.00822 | 38022 ft | 431 kts | 221° |
| 2026-05-05 15:18 | 24.02854 | 119.97020 | 38022 ft | 432 kts | 221° |
| 2026-05-05 15:18 | 23.97947 | 119.93233 | 38025 ft | 433 kts | 221° |
| 2026-05-05 15:19 | 23.93034 | 119.89449 | 38021 ft | 434 kts | 221° |
| 2026-05-05 15:19 | 23.88087 | 119.85641 | 38014 ft | 436 kts | 221° |
| 2026-05-05 15:20 | 23.83135 | 119.81833 | 38019 ft | 437 kts | 221° |
| 2026-05-05 15:20 | 23.78156 | 119.78007 | 38016 ft | 438 kts | 221° |
| 2026-05-05 15:21 | 23.73166 | 119.74176 | 38021 ft | 438 kts | 221° |
| 2026-05-05 15:21 | 23.68176 | 119.70347 | 38023 ft | 439 kts | 221° |
| 2026-05-05 15:22 | 23.63218 | 119.66495 | 38007 ft | 437 kts | 224° |
| 2026-05-05 15:22 | 23.58917 | 119.61896 | 38026 ft | 430 kts | 233° |
| 2026-05-05 15:23 | 23.55353 | 119.56705 | 38019 ft | 426 kts | 240° |
| 2026-05-05 15:23 | 23.52204 | 119.51232 | 38014 ft | 427 kts | 241° |
| 2026-05-05 15:24 | 23.49068 | 119.45744 | 38016 ft | 428 kts | 241° |
| 2026-05-05 15:24 | 23.45907 | 119.40264 | 38016 ft | 429 kts | 241° |
| 2026-05-05 15:25 | 23.42709 | 119.34754 | 38017 ft | 430 kts | 241° |
| 2026-05-05 15:25 | 23.39495 | 119.29231 | 38012 ft | 431 kts | 241° |
| 2026-05-05 15:26 | 23.36291 | 119.23731 | 38011 ft | 432 kts | 241° |
| 2026-05-05 15:26 | 23.33071 | 119.18209 | 38011 ft | 432 kts | 241° |
| 2026-05-05 15:27 | 23.29832 | 119.12661 | 38012 ft | 433 kts | 241° |
| 2026-05-05 15:27 | 23.26609 | 119.07144 | 38014 ft | 433 kts | 241° |
| 2026-05-05 15:28 | 23.23382 | 119.01627 | 38014 ft | 433 kts | 241° |
| 2026-05-05 15:28 | 23.20152 | 118.96112 | 38013 ft | 434 kts | 241° |
| 2026-05-05 15:29 | 23.16912 | 118.90584 | 38019 ft | 434 kts | 241° |
| 2026-05-05 15:29 | 23.13648 | 118.85023 | 38019 ft | 434 kts | 241° |
| 2026-05-05 15:30 | 23.10401 | 118.79496 | 38015 ft | 435 kts | 241° |
| 2026-05-05 15:30 | 23.07148 | 118.73963 | 38015 ft | 435 kts | 241° |
| 2026-05-05 15:31 | 23.03879 | 118.68410 | 38008 ft | 436 kts | 241° |
| 2026-05-05 15:31 | 23.00624 | 118.62887 | 38015 ft | 436 kts | 241° |
| 2026-05-05 15:32 | 22.97359 | 118.57351 | 38015 ft | 437 kts | 242° |
| 2026-05-05 15:32 | 22.94066 | 118.51781 | 38010 ft | 437 kts | 241° |
| 2026-05-05 15:33 | 22.90764 | 118.46229 | 38009 ft | 438 kts | 241° |
| 2026-05-05 15:33 | 22.87461 | 118.40681 | 38011 ft | 438 kts | 241° |
| 2026-05-05 15:34 | 22.84158 | 118.35136 | 38012 ft | 439 kts | 241° |
| 2026-05-05 15:34 | 22.80837 | 118.29564 | 38014 ft | 439 kts | 241° |
| 2026-05-05 15:35 | 22.77510 | 118.23988 | 38010 ft | 440 kts | 241° |
| 2026-05-05 15:35 | 22.74190 | 118.18429 | 38010 ft | 440 kts | 241° |
| 2026-05-05 15:36 | 22.70864 | 118.12868 | 38014 ft | 441 kts | 241° |
| 2026-05-05 15:36 | 22.67527 | 118.07292 | 38014 ft | 441 kts | 241° |
| 2026-05-05 15:37 | 22.64190 | 118.01721 | 38012 ft | 442 kts | 241° |
| 2026-05-05 15:37 | 22.60848 | 117.96150 | 38011 ft | 442 kts | 241° |
| 2026-05-05 15:38 | 22.57516 | 117.90571 | 38010 ft | 442 kts | 242° |
| 2026-05-05 15:38 | 22.54173 | 117.84947 | 38009 ft | 443 kts | 242° |
| 2026-05-05 15:39 | 22.50848 | 117.79362 | 38011 ft | 443 kts | 242° |
| 2026-05-05 15:39 | 22.47509 | 117.73762 | 38011 ft | 444 kts | 241° |
| 2026-05-05 15:40 | 22.44143 | 117.68124 | 38010 ft | 444 kts | 241° |
| 2026-05-05 15:40 | 22.40794 | 117.62521 | 38009 ft | 445 kts | 241° |
| 2026-05-05 15:41 | 22.37442 | 117.56916 | 38021 ft | 446 kts | 241° |
| 2026-05-05 15:41 | 22.34214 | 117.51198 | 38003 ft | 439 kts | 251° |
| 2026-05-05 15:41 | 22.33308 | 117.48113 | 38004 ft | 435 kts | 262° |
| 2026-05-05 15:42 | 22.33085 | 117.44875 | 38030 ft | 430 kts | 271° |
| 2026-05-05 15:42 | 22.33062 | 117.38401 | 38021 ft | 433 kts | 270° |
| 2026-05-05 15:43 | 22.32978 | 117.31841 | 38012 ft | 437 kts | 270° |
| 2026-05-05 15:43 | 22.32866 | 117.25302 | 38016 ft | 439 kts | 270° |
| 2026-05-05 15:44 | 22.32742 | 117.18708 | 38015 ft | 440 kts | 270° |
| 2026-05-05 15:44 | 22.32615 | 117.12109 | 38013 ft | 440 kts | 270° |
| 2026-05-05 15:45 | 22.32486 | 117.05500 | 38016 ft | 439 kts | 270° |
| 2026-05-05 15:45 | 22.32356 | 116.98924 | 38011 ft | 438 kts | 270° |
| 2026-05-05 15:46 | 22.32271 | 116.94709 | 38013 ft | 438 kts | 270° |
| 2026-05-05 15:46 | 22.32136 | 116.88120 | 38017 ft | 440 kts | 270° |
| 2026-05-05 15:47 | 22.31998 | 116.81493 | 38011 ft | 440 kts | 270° |
| 2026-05-05 15:47 | 22.31858 | 116.74910 | 38012 ft | 440 kts | 270° |
| 2026-05-05 15:48 | 22.31714 | 116.68285 | 38013 ft | 439 kts | 270° |
| 2026-05-05 15:48 | 22.31569 | 116.61737 | 38010 ft | 438 kts | 270° |
| 2026-05-05 15:49 | 22.31420 | 116.55129 | 38016 ft | 438 kts | 270° |
| 2026-05-05 15:49 | 22.31271 | 116.48579 | 38018 ft | 437 kts | 270° |
| 2026-05-05 15:50 | 22.31118 | 116.42052 | 38013 ft | 437 kts | 270° |
| 2026-05-05 15:50 | 22.30963 | 116.35484 | 38016 ft | 437 kts | 270° |
| 2026-05-05 15:51 | 22.30806 | 116.28952 | 38014 ft | 437 kts | 270° |
| 2026-05-05 15:51 | 22.30644 | 116.22377 | 38013 ft | 437 kts | 270° |
| 2026-05-05 15:52 | 22.30482 | 116.15845 | 38013 ft | 437 kts | 270° |
| 2026-05-05 15:52 | 22.30316 | 116.09279 | 38014 ft | 438 kts | 270° |
| 2026-05-05 15:53 | 22.30147 | 116.02712 | 38013 ft | 438 kts | 270° |
| 2026-05-05 15:53 | 22.29975 | 115.96133 | 38010 ft | 438 kts | 270° |
| 2026-05-05 15:54 | 22.29800 | 115.89523 | 38013 ft | 438 kts | 270° |
| 2026-05-05 15:54 | 22.29624 | 115.82949 | 38013 ft | 439 kts | 270° |
| 2026-05-05 15:55 | 22.29405 | 115.76390 | 38004 ft | 432 kts | 269° |
| 2026-05-05 15:55 | 22.29281 | 115.73169 | 37762 ft | 426 kts | 269° |
| 2026-05-05 15:55 | 22.29159 | 115.70010 | 37180 ft | 424 kts | 269° |
| 2026-05-05 15:55 | 22.29037 | 115.66825 | 36503 ft | 424 kts | 269° |
| 2026-05-05 15:56 | 22.28917 | 115.63643 | 35762 ft | 425 kts | 269° |
| 2026-05-05 15:56 | 22.28837 | 115.61518 | 35203 ft | 428 kts | 269° |
| 2026-05-05 15:56 | 22.28716 | 115.58285 | 34317 ft | 433 kts | 269° |
| 2026-05-05 15:56 | 22.28551 | 115.53933 | 32997 ft | 439 kts | 269° |
| 2026-05-05 15:57 | 22.28466 | 115.51697 | 32334 ft | 441 kts | 269° |
| 2026-05-05 15:57 | 22.28340 | 115.48404 | 31336 ft | 445 kts | 269° |
| 2026-05-05 15:57 | 22.28210 | 115.45032 | 30493 ft | 446 kts | 269° |
| 2026-05-05 15:57 | 22.28082 | 115.41725 | 29691 ft | 445 kts | 270° |
| 2026-05-05 15:58 | 22.27952 | 115.38378 | 28884 ft | 442 kts | 269° |
| 2026-05-05 15:58 | 22.27823 | 115.35055 | 28143 ft | 439 kts | 269° |
| 2026-05-05 15:58 | 22.27695 | 115.31798 | 27440 ft | 436 kts | 269° |
| 2026-05-05 15:58 | 22.27567 | 115.28544 | 26751 ft | 432 kts | 269° |
| 2026-05-05 15:59 | 22.27439 | 115.25315 | 26072 ft | 429 kts | 269° |
| 2026-05-05 15:59 | 22.27312 | 115.22104 | 25390 ft | 426 kts | 268° |
| 2026-05-05 15:59 | 22.27185 | 115.18914 | 24707 ft | 424 kts | 268° |
| 2026-05-05 15:59 | 22.27057 | 115.15731 | 24047 ft | 422 kts | 268° |
| 2026-05-05 16:00 | 22.26828 | 115.12572 | 23320 ft | 420 kts | 263° |
| 2026-05-05 16:00 | 22.26316 | 115.09502 | 22603 ft | 418 kts | 259° |
| 2026-05-05 16:00 | 22.25695 | 115.06439 | 21915 ft | 415 kts | 258° |
| 2026-05-05 16:00 | 22.25083 | 115.03435 | 21273 ft | 411 kts | 259° |
| 2026-05-05 16:01 | 22.24505 | 115.00428 | 20629 ft | 408 kts | 260° |
| 2026-05-05 16:01 | 22.23957 | 114.97424 | 20002 ft | 405 kts | 260° |
| 2026-05-05 16:01 | 22.23420 | 114.94435 | 19368 ft | 404 kts | 260° |
| 2026-05-05 16:01 | 22.22998 | 114.91445 | 18720 ft | 400 kts | 266° |
| 2026-05-05 16:02 | 22.22890 | 114.88449 | 18069 ft | 399 kts | 270° |
| 2026-05-05 16:02 | 22.22910 | 114.85455 | 17386 ft | 397 kts | 271° |
| 2026-05-05 16:02 | 22.22949 | 114.82513 | 16751 ft | 394 kts | 271° |
| 2026-05-05 16:02 | 22.22969 | 114.79556 | 16133 ft | 392 kts | 270° |
| 2026-05-05 16:03 | 22.22965 | 114.76613 | 15526 ft | 390 kts | 269° |
| 2026-05-05 16:03 | 22.22943 | 114.73713 | 14967 ft | 387 kts | 269° |
| 2026-05-05 16:03 | 22.22912 | 114.70858 | 14805 ft | 373 kts | 269° |
| 2026-05-05 16:03 | 22.22879 | 114.68128 | 14629 ft | 361 kts | 269° |
| 2026-05-05 16:04 | 22.22845 | 114.65456 | 14472 ft | 350 kts | 268° |
| 2026-05-05 16:04 | 22.22813 | 114.62870 | 14326 ft | 339 kts | 268° |
| 2026-05-05 16:04 | 22.22781 | 114.60355 | 14183 ft | 329 kts | 268° |
| 2026-05-05 16:04 | 22.22750 | 114.57915 | 14047 ft | 320 kts | 268° |
| 2026-05-05 16:05 | 22.22720 | 114.55545 | 13909 ft | 310 kts | 268° |
| 2026-05-05 16:05 | 22.22691 | 114.53285 | 13595 ft | 293 kts | 268° |
| 2026-05-05 16:05 | 22.22662 | 114.51104 | 13338 ft | 289 kts | 268° |
| 2026-05-05 16:05 | 22.22633 | 114.48952 | 13097 ft | 290 kts | 268° |
| 2026-05-05 16:06 | 22.22603 | 114.46764 | 12855 ft | 290 kts | 268° |
| 2026-05-05 16:06 | 22.22573 | 114.44595 | 12605 ft | 289 kts | 268° |
| 2026-05-05 16:06 | 22.22543 | 114.42420 | 12363 ft | 289 kts | 268° |
| 2026-05-05 16:06 | 22.22513 | 114.40277 | 12126 ft | 288 kts | 268° |
| 2026-05-05 16:07 | 22.22483 | 114.38100 | 11883 ft | 288 kts | 268° |
| 2026-05-05 16:07 | 22.22453 | 114.35937 | 11650 ft | 287 kts | 268° |
| 2026-05-05 16:07 | 22.22422 | 114.33802 | 11417 ft | 287 kts | 268° |
| 2026-05-05 16:07 | 22.22391 | 114.31635 | 11178 ft | 287 kts | 268° |
| 2026-05-05 16:08 | 22.22360 | 114.29492 | 10939 ft | 287 kts | 268° |
| 2026-05-05 16:08 | 22.22328 | 114.27329 | 10703 ft | 287 kts | 268° |
| 2026-05-05 16:08 | 22.22297 | 114.25165 | 10464 ft | 286 kts | 268° |
| 2026-05-05 16:08 | 22.22265 | 114.23050 | 10235 ft | 285 kts | 268° |
| 2026-05-05 16:09 | 22.22233 | 114.20916 | 9996 ft | 282 kts | 268° |
| 2026-05-05 16:09 | 22.22201 | 114.18810 | 9751 ft | 277 kts | 268° |
| 2026-05-05 16:09 | 22.22170 | 114.16760 | 9509 ft | 274 kts | 268° |
| 2026-05-05 16:09 | 22.22139 | 114.14706 | 9270 ft | 272 kts | 268° |
| 2026-05-05 16:10 | 22.22108 | 114.12659 | 9053 ft | 270 kts | 268° |
| 2026-05-05 16:10 | 22.22077 | 114.10654 | 8824 ft | 268 kts | 268° |
| 2026-05-05 16:10 | 22.22045 | 114.08643 | 8589 ft | 265 kts | 268° |
| 2026-05-05 16:10 | 22.22013 | 114.06677 | 8387 ft | 264 kts | 268° |
| 2026-05-05 16:11 | 22.21981 | 114.04690 | 8164 ft | 262 kts | 268° |
| 2026-05-05 16:11 | 22.21822 | 113.98786 | 7326 ft | 265 kts | 266° |
| 2026-05-05 16:12 | 22.21755 | 113.96806 | 7061 ft | 265 kts | 266° |
| 2026-05-05 16:12 | 22.21623 | 113.92848 | 6511 ft | 262 kts | 266° |
| 2026-05-05 16:13 | 22.22596 | 113.87606 | 5713 ft | 234 kts | 317° |
| 2026-05-05 16:13 | 22.23982 | 113.86745 | 5546 ft | 229 kts | 341° |
| 2026-05-05 16:13 | 22.25564 | 113.86558 | 5391 ft | 233 kts | 7° |
| 2026-05-05 16:14 | 22.28262 | 113.88281 | 5124 ft | 227 kts | 57° |
| 2026-05-05 16:14 | 22.29501 | 113.91170 | 4757 ft | 203 kts | 46° |
| 2026-05-05 16:15 | 22.31229 | 113.93363 | 4527 ft | 184 kts | 81° |
| 2026-05-05 16:15 | 22.31688 | 113.96126 | 4471 ft | 195 kts | 84° |
| 2026-05-05 16:16 | 22.31948 | 113.99001 | 3945 ft | 187 kts | 88° |
| 2026-05-05 16:16 | 22.32127 | 114.01559 | 3484 ft | 149 kts | 89° |
| 2026-05-05 16:17 | 22.32271 | 114.03728 | 3131 ft | 145 kts | 89° |
| 2026-05-05 16:17 | 22.32342 | 114.04786 | 2925 ft | 138 kts | 89° |
| 2026-05-05 16:18 | 22.32481 | 114.06819 | 2567 ft | 133 kts | 88° |
| 2026-05-05 16:18 | 22.32549 | 114.07818 | 2388 ft | 132 kts | 88° |
| 2026-05-05 16:18 | 22.32683 | 114.09788 | 2025 ft | 131 kts | 88° |
| 2026-05-05 16:19 | 22.32750 | 114.10771 | 1853 ft | 130 kts | 87° |
| 2026-05-05 16:19 | 22.32816 | 114.11742 | 1672 ft | 129 kts | 86° |
| 2026-05-05 16:19 | 22.32941 | 114.13677 | 1305 ft | 132 kts | 87° |
| 2026-05-05 16:20 | 22.33050 | 114.15660 | 1007 ft | 133 kts | 84° |
| 2026-05-05 16:20 | 22.33194 | 114.17652 | 566 ft | 129 kts | 94° |
| 2026-05-05 16:21 | 22.32455 | 114.19328 | 177 ft | 134 kts | 131° |
| 2026-05-05 16:22 | 22.30135 | 114.21947 | 2261 ft | 210 kts | 130° |
| 2026-05-05 16:22 | 22.28165 | 114.24380 | 3858 ft | 226 kts | 132° |
| 2026-05-05 16:23 | 22.25986 | 114.27138 | 4067 ft | 238 kts | 134° |
| 2026-05-05 16:23 | 22.24841 | 114.28283 | 4363 ft | 220 kts | 141° |
| 2026-05-05 16:23 | 22.22499 | 114.30515 | 4489 ft | 230 kts | 136° |
| 2026-05-05 16:24 | 22.21416 | 114.31754 | 4488 ft | 227 kts | 135° |
| 2026-05-05 16:24 | 22.20350 | 114.32994 | 4488 ft | 223 kts | 135° |
| 2026-05-05 16:24 | 22.18339 | 114.35482 | 4472 ft | 217 kts | 117° |
| 2026-05-05 16:25 | 22.18093 | 114.37092 | 4513 ft | 226 kts | 84° |
| 2026-05-05 16:25 | 22.19892 | 114.39879 | 4501 ft | 242 kts | 26° |
| 2026-05-05 16:25 | 22.21579 | 114.40236 | 4525 ft | 265 kts | 355° |
| 2026-05-05 16:26 | 22.24570 | 114.38055 | 4481 ft | 269 kts | 290° |
| 2026-05-05 16:26 | 22.24441 | 114.34114 | 4508 ft | 269 kts | 259° |
| 2026-05-05 16:27 | 22.24396 | 114.33835 | 4500 ft | 270 kts | 258° |
| 2026-05-05 16:28 | 22.24105 | 114.31808 | 4503 ft | 272 kts | 260° |
| 2026-05-05 16:28 | 22.23867 | 114.29782 | 4499 ft | 270 kts | 261° |
| 2026-05-05 16:28 | 22.23667 | 114.27763 | 4490 ft | 269 kts | 262° |
| 2026-05-05 16:28 | 22.23496 | 114.25776 | 4490 ft | 266 kts | 263° |
| 2026-05-05 16:29 | 22.23341 | 114.23781 | 4492 ft | 265 kts | 263° |
| 2026-05-05 16:29 | 22.23200 | 114.21811 | 4492 ft | 265 kts | 264° |
| 2026-05-05 16:29 | 22.23063 | 114.19814 | 4491 ft | 267 kts | 264° |
| 2026-05-05 16:29 | 22.22927 | 114.17805 | 4488 ft | 266 kts | 264° |
| 2026-05-05 16:30 | 22.22795 | 114.15819 | 4254 ft | 269 kts | 264° |
| 2026-05-05 16:30 | 22.22663 | 114.13804 | 3981 ft | 269 kts | 263° |
| 2026-05-05 16:30 | 22.22533 | 114.11810 | 3847 ft | 261 kts | 264° |
| 2026-05-05 16:30 | 22.22407 | 114.09876 | 3763 ft | 251 kts | 263° |
| 2026-05-05 16:31 | 22.22556 | 114.08069 | 3551 ft | 236 kts | 291° |
| 2026-05-05 16:31 | 22.23466 | 114.06697 | 3357 ft | 228 kts | 322° |
| 2026-05-05 16:31 | 22.24870 | 114.05946 | 3168 ft | 223 kts | 349° |
| 2026-05-05 16:31 | 22.26369 | 114.05825 | 3129 ft | 210 kts | 8° |
| 2026-05-05 16:32 | 22.27689 | 114.06273 | 3032 ft | 194 kts | 31° |
| 2026-05-05 16:32 | 22.28849 | 114.06942 | 2919 ft | 183 kts | 33° |
| 2026-05-05 16:32 | 22.29936 | 114.07586 | 2828 ft | 171 kts | 33° |
| 2026-05-05 16:32 | 22.30925 | 114.08168 | 2676 ft | 157 kts | 33° |
| 2026-05-05 16:33 | 22.31835 | 114.08730 | 2394 ft | 145 kts | 44° |
| 2026-05-05 16:33 | 22.32325 | 114.09579 | 2031 ft | 125 kts | 77° |
| 2026-05-05 16:33 | 22.32570 | 114.10538 | 1886 ft | 135 kts | 79° |
| 2026-05-05 16:33 | 22.32742 | 114.11514 | 1717 ft | 131 kts | 82° |
| 2026-05-05 16:34 | 22.32861 | 114.12475 | 1513 ft | 129 kts | 85° |
| 2026-05-05 16:34 | 22.32933 | 114.13457 | 1358 ft | 132 kts | 86° |
| 2026-05-05 16:34 | 22.32997 | 114.14433 | 1176 ft | 132 kts | 86° |
| 2026-05-05 16:34 | 22.33042 | 114.15425 | 968 ft | 132 kts | 86° |
| 2026-05-05 16:35 | 22.33126 | 114.16425 | 813 ft | 136 kts | 86° |
| 2026-05-05 16:35 | 22.33172 | 114.17447 | 616 ft | 134 kts | 88° |
| 2026-05-05 16:35 | 22.33089 | 114.18441 | 410 ft | 134 kts | 108° |
| 2026-05-05 16:35 | 22.32511 | 114.19267 | 177 ft | 143 kts | 130° |
| 2026-05-05 16:36 | 22.31844 | 114.20017 | 39 ft | 129 kts | 131° |
| 2026-05-05 16:36 | 22.31319 | 114.20612 | 38 ft | 83 kts | 134° |
| 2026-05-05 16:36 | 22.31048 | 114.20913 | 37 ft | 30 kts | 133° |
| 2026-05-05 16:36 | 22.30957 | 114.21017 | 37 ft | 8 kts | 124° |
| 2026-05-05 16:37 | 22.30970 | 114.21071 | 37 ft | 8 kts | 54° |
| 2026-05-05 16:37 | 22.31023 | 114.21081 | 37 ft | 9 kts | 332° |
| 2026-05-05 16:37 | 22.31074 | 114.21034 | 38 ft | 10 kts | 316° |
| 2026-05-05 16:37 | 22.31128 | 114.20975 | 38 ft | 12 kts | 314° |
| 2026-05-05 16:38 | 22.31187 | 114.20910 | 38 ft | 13 kts | 314° |
| 2026-05-05 16:38 | 22.31208 | 114.20886 | 38 ft | 13 kts | 314° |
| 2026-05-05 16:38 | 22.31299 | 114.20784 | 38 ft | 15 kts | 314° |
| 2026-05-05 16:38 | 22.31374 | 114.20701 | 38 ft | 16 kts | 314° |
| 2026-05-05 16:39 | 22.31453 | 114.20612 | 38 ft | 17 kts | 314° |
| 2026-05-05 16:39 | 22.31538 | 114.20517 | 38 ft | 18 kts | 314° |
| 2026-05-05 16:39 | 22.31628 | 114.20416 | 37 ft | 19 kts | 314° |
| 2026-05-05 16:39 | 22.31721 | 114.20312 | 38 ft | 20 kts | 314° |
| 2026-05-05 16:40 | 22.31821 | 114.20201 | 38 ft | 21 kts | 314° |
| 2026-05-05 16:40 | 22.31923 | 114.20085 | 38 ft | 22 kts | 314° |
| 2026-05-05 16:40 | 22.32029 | 114.19968 | 38 ft | 22 kts | 314° |
| 2026-05-05 16:40 | 22.32132 | 114.19852 | 37 ft | 22 kts | 314° |
| 2026-05-05 16:41 | 22.32202 | 114.19775 | 38 ft | 22 kts | 314° |
| 2026-05-05 16:41 | 22.32344 | 114.19622 | 38 ft | 22 kts | 317° |
| 2026-05-05 16:41 | 22.32455 | 114.19513 | 38 ft | 22 kts | 317° |
| 2026-05-05 16:41 | 22.32505 | 114.19463 | 38 ft | 5 kts | 317° |
| 2026-05-05 16:42 | 22.32535 | 114.19433 | 38 ft | 7 kts | 317° |
| 2026-05-05 16:42 | 22.32580 | 114.19409 | 38 ft | 8 kts | 336° |
| 2026-05-05 16:42 | 22.32611 | 114.19390 | 38 ft | 2 kts | 324° |
| 2026-05-05 16:42 | 22.32625 | 114.19377 | 38 ft | 3 kts | 319° |
| 2026-05-05 16:43 | 22.32638 | 114.19364 | 38 ft | 1 kts | 316° |
| 2026-05-05 16:43 | 22.32646 | 114.19356 | 38 ft | 2 kts | 315° |
| 2026-05-05 16:43 | 22.32650 | 114.19352 | 38 ft | 0 kts | 315° |
| 2026-05-05 16:45 | 22.32959 | 114.13847 | 1261 ft | 131 kts | 85° |
| 2026-05-05 16:45 | 22.33017 | 114.14837 | 1072 ft | 132 kts | 88° |
| 2026-05-05 16:45 | 22.33070 | 114.15819 | 905 ft | 133 kts | 84° |
| 2026-05-05 16:46 | 22.33149 | 114.16834 | 732 ft | 136 kts | 87° |
| 2026-05-05 16:46 | 22.33166 | 114.17844 | 556 ft | 133 kts | 92° |
| 2026-05-05 16:46 | 22.32915 | 114.18787 | 317 ft | 140 kts | 125° |
| 2026-05-05 16:46 | 22.32239 | 114.19574 | 92 ft | 143 kts | 130° |
| 2026-05-05 16:47 | 22.31614 | 114.20285 | 38 ft | 115 kts | 135° |